Ever Delight — 3FCB8 — position and weather

sailwx.info

Track history (hours):
 
Tides and Currents Weather Stations Pressure Air Temp Water Temp Dewpoint Dewpoint Depression Visibility Wind Speed Wind Dir Waves Ship Positions

Ever Delight

Last reported at 2018-May-24 06:00 UTC. Time now 2018-May-24 06:27 UTC.
Position N 40°41' W 074°08'.

Type: Cargo ship. MMSI: 351936000.

Date/timePositionNaut miles runAvg speedWind from/ knotsBaromVisibWave heightAir tempDewpointWater temp
2018-May-24 06:00N 40°41' W 074°08'0 0.0
2018-May-24 05:30N 40°41' W 074°08'0 0.0
2018-May-24 05:00N 40°41' W 074°08'0 0.0
2018-May-24 04:30N 40°41' W 074°08'0 0.0
2018-May-24 04:00N 40°41' W 074°08'0 0.0
2018-May-24 03:30N 40°41' W 074°08'0 0.0
2018-May-24 03:00N 40°41' W 074°08'0 0.0
2018-May-24 02:30N 40°41' W 074°08'0 0.0
2018-May-24 02:00N 40°41' W 074°08'0 0.0
2018-May-24 01:30N 40°41' W 074°08'0 0.0
2018-May-24 01:00N 40°41' W 074°08'0 0.0
2018-May-24 00:30N 40°41' W 074°08'0 0.0
2018-May-23 23:57N 40°41' W 074°08'0 0.0
2018-May-23 23:30N 40°41' W 074°08'0 0.0
2018-May-23 23:00N 40°41' W 074°08'0 0.0
2018-May-23 22:28N 40°41' W 074°08'0 0.0
2018-May-23 21:55N 40°41' W 074°08'0 0.0
2018-May-23 21:28N 40°41' W 074°08'0 0.0
2018-May-23 20:58N 40°41' W 074°08'0 0.0
2018-May-23 20:25N 40°41' W 074°08'0 0.0
2018-May-23 19:58N 40°41' W 074°08'0 0.0
2018-May-23 19:28N 40°41' W 074°08'0 0.0
2018-May-23 18:58N 40°41' W 074°08'0 0.0
2018-May-23 18:28N 40°41' W 074°08'0 0.0
2018-May-23 17:58N 40°41' W 074°08'0 0.0
2018-May-23 17:28N 40°41' W 074°08'0 0.0
2018-May-23 16:58N 40°41' W 074°08'0 0.0
2018-May-23 16:28N 40°41' W 074°08'0 0.0
2018-May-23 15:58N 40°41' W 074°08'0 0.0
2018-May-23 15:28N 40°41' W 074°08'0 0.0
2018-May-23 14:58N 40°41' W 074°08'0 0.0
2018-May-23 14:28N 40°41' W 074°08'0 0.0
2018-May-23 13:58N 40°41' W 074°08'0 0.0
2018-May-23 13:28N 40°41' W 074°08'0 0.0
2018-May-23 12:58N 40°41' W 074°08'0 0.0
2018-May-23 12:25N 40°41' W 074°08'0 0.0
2018-May-23 11:58N 40°41' W 074°08'0 0.0
2018-May-23 11:28N 40°41' W 074°08'0 0.0
2018-May-23 10:55N 40°41' W 074°08'0 0.0
2018-May-23 10:28N 40°41' W 074°08'0 0.0
2018-May-23 09:58N 40°41' W 074°08'0 0.0
2018-May-23 09:30N 40°41' W 074°08'0 0.0
2018-May-23 09:00N 40°41' W 074°08'1 1.2
2018-May-23 08:30N 40°40' W 074°08'2 3.2
2018-May-23 08:00N 40°39' W 074°07'3 6.0
2018-May-23 07:30N 40°38' W 074°03'510.6
2018-May-23 07:00N 40°33' W 074°02'714.3
2018-May-23 06:30N 40°29' W 073°54'9813.3
2018-May-22 23:07N 38°51' W 073°45'1014.8
2018-May-22 22:24N 38°41' W 073°48'714.8
2018-May-22 21:55N 38°34' W 073°50'41 9.0
2018-May-22 17:17N 37°54' W 074°04'0 0.5
2018-May-22 17:00N 37°54' W 074°04'0 0.4
2018-May-22 16:30N 37°54' W 074°03'0 0.5
2018-May-22 15:59N 37°54' W 074°03'0 0.3
2018-May-22 15:29N 37°54' W 074°03'0 0.1
2018-May-22 14:59N 37°54' W 074°03'1 2.2
2018-May-22 14:30N 37°54' W 074°04'713.4
2018-May-22 14:00N 37°47' W 074°06'714.9
2018-May-22 13:31N 37°40' W 074°08'714.6
2018-May-22 13:01N 37°33' W 074°11'714.6
2018-May-22 12:31N 37°26' W 074°13'714.8
2018-May-22 12:00N 37°19' W 074°16'714.7
2018-May-22 11:30N 37°12' W 074°18'714.8
2018-May-22 11:00N 37°04' W 074°20'715.0
2018-May-22 10:30N 36°57' W 074°23'815.1
2018-May-22 10:00N 36°50' W 074°25'815.1
2018-May-22 09:30N 36°43' W 074°27'67216.0
2018-May-20 15:23N 26°26' W 079°41'918.4
2018-May-20 14:52N 26°17' W 079°45'718.5
2018-May-20 14:30N 26°11' W 079°48'918.8
2018-May-20 14:00N 26°02' W 079°52'918.3
2018-May-20 13:31N 25°54' W 079°56'816.8
2018-May-20 13:00N 25°48' W 080°02'510.3
2018-May-20 12:30N 25°46' W 080°08'1 0.5
2018-May-20 10:00N 25°46' W 080°09'0 0.0
2018-May-20 09:30N 25°46' W 080°09'0 0.0
2018-May-20 09:00N 25°46' W 080°09'0 0.0
2018-May-20 08:29N 25°46' W 080°09'0 0.0
2018-May-20 08:01N 25°46' W 080°09'0 0.0
2018-May-20 07:30N 25°46' W 080°09'0 0.0
2018-May-20 07:00N 25°46' W 080°09'0 0.0
2018-May-20 06:30N 25°46' W 080°09'0 0.0
2018-May-20 06:00N 25°46' W 080°09'0 0.0
2018-May-20 05:30N 25°46' W 080°09'0 0.0
2018-May-20 05:00N 25°46' W 080°09'0 0.0
2018-May-20 04:30N 25°46' W 080°09'0 0.0
2018-May-20 04:00N 25°46' W 080°09'0 0.0
2018-May-20 03:30N 25°46' W 080°09'0 0.0
2018-May-20 03:00N 25°46' W 080°09'0 0.0
2018-May-20 02:30N 25°46' W 080°09'0 0.0
2018-May-20 02:00N 25°46' W 080°09'0 0.0
2018-May-20 01:30N 25°46' W 080°09'0 0.0
2018-May-20 01:00N 25°46' W 080°09'0 0.0
2018-May-20 00:30N 25°46' W 080°09'0 0.0
2018-May-20 00:01N 25°46' W 080°09'0 0.0
2018-May-19 23:30N 25°46' W 080°09'0 0.0
2018-May-19 23:00N 25°46' W 080°09'0 0.0
2018-May-19 22:30N 25°46' W 080°09'0 0.0
2018-May-19 22:00N 25°46' W 080°09'0 0.0
2018-May-19 21:30N 25°46' W 080°09'0 0.0
2018-May-19 21:00N 25°46' W 080°09'0 0.0
2018-May-19 20:30N 25°46' W 080°09'0 0.0
2018-May-19 20:00N 25°46' W 080°09'0 0.1
2018-May-19 19:30N 25°46' W 080°09'0 0.0
2018-May-19 19:00N 25°46' W 080°09'0 0.0
2018-May-19 18:30N 25°46' W 080°09'0 0.0
2018-May-19 18:00N 25°46' W 080°09'2 4.3
2018-May-19 17:30N 25°45' W 080°07'5 9.7
2018-May-19 17:01N 25°46' W 080°01'3 5.7
2018-May-19 16:31N 25°48' W 079°59'815.4
2018-May-19 16:00N 25°55' W 079°56'816.0
2018-May-19 15:30N 26°02' W 079°53'816.1
2018-May-19 15:00N 26°10' W 079°51'816.4
2018-May-19 14:30N 26°18' W 079°48'816.9
2018-May-19 14:00N 26°26' W 079°46'917.0
2018-May-19 13:30N 26°34' W 079°43'31817.5
2018-May-18 19:22N 31°50' W 080°22'719.2
2018-May-18 19:00N 31°53' W 080°30'917.2
2018-May-18 18:30N 31°56' W 080°39'612.1
2018-May-18 18:00N 31°59' W 080°46'714.3
2018-May-18 17:31N 32°02' W 080°53'611.7
2018-May-18 17:00N 32°05' W 080°59'5 9.0
2018-May-18 16:29N 32°05' W 081°05'3 5.6
2018-May-18 16:00N 32°06' W 081°07'2 4.1
2018-May-18 15:30N 32°08' W 081°09'0 0.1
2018-May-18 14:57N 32°08' W 081°09'0 0.0
2018-May-18 14:27N 32°08' W 081°09'0 0.0
2018-May-18 13:57N 32°08' W 081°09'0 0.0
2018-May-18 13:27N 32°08' W 081°09'0 0.0
2018-May-18 12:45N 32°08' W 081°09'0 0.0
2018-May-18 12:27N 32°08' W 081°09'0 0.0
2018-May-18 11:57N 32°08' W 081°09'0 0.0
2018-May-18 11:27N 32°08' W 081°09'0 0.0
2018-May-18 11:00N 32°08' W 081°09'0 0.0
2018-May-18 10:30N 32°08' W 081°09'0 0.0
2018-May-18 10:00N 32°08' W 081°09'0 0.0
2018-May-18 09:30N 32°08' W 081°09'0 0.0
2018-May-18 09:00N 32°08' W 081°09'0 0.0
2018-May-18 08:30N 32°08' W 081°09'0 0.0
2018-May-18 08:00N 32°08' W 081°09'0 0.0
2018-May-18 07:30N 32°08' W 081°09'0 0.0
2018-May-18 07:00N 32°08' W 081°09'0 0.0
2018-May-18 06:30N 32°08' W 081°09'0 0.0
2018-May-18 06:00N 32°08' W 081°09'0 0.0
2018-May-18 05:27N 32°08' W 081°09'0 0.0
2018-May-18 05:00N 32°08' W 081°09'0 0.0
2018-May-18 04:30N 32°08' W 081°09'0 0.0
2018-May-18 04:00N 32°08' W 081°09'0 0.0
2018-May-18 03:30N 32°08' W 081°09'0 0.0
2018-May-18 03:00N 32°08' W 081°09'0 0.0
2018-May-18 02:30N 32°08' W 081°09'0 0.0
2018-May-18 02:00N 32°08' W 081°09'0 0.0
2018-May-18 01:30N 32°08' W 081°09'0 0.0
2018-May-18 01:00N 32°08' W 081°09'0 0.0
2018-May-18 00:30N 32°08' W 081°09'0 0.0
2018-May-18 00:00N 32°08' W 081°09'0 0.0
2018-May-17 23:30N 32°08' W 081°09'0 0.0
2018-May-17 23:00N 32°08' W 081°09'0 0.0
2018-May-17 22:30N 32°08' W 081°09'0 0.0
2018-May-17 22:00N 32°08' W 081°09'0 0.0
2018-May-17 21:30N 32°08' W 081°09'1 1.8
2018-May-17 21:00N 32°07' W 081°08'2 4.9
2018-May-17 20:30N 32°05' W 081°06'3 5.6
2018-May-17 20:00N 32°05' W 081°03'4 7.3
2018-May-17 19:30N 32°05' W 080°59'4 8.3
2018-May-17 19:00N 32°02' W 080°54'510.0
2018-May-17 18:30N 32°02' W 080°49'713.2
2018-May-17 18:00N 31°58' W 080°42'4 7.7
2018-May-17 17:25N 31°59' W 080°37'0 0.1
2018-May-17 16:55N 31°59' W 080°37'0 0.0
2018-May-17 16:25N 31°59' W 080°37'0 0.0
2018-May-17 15:55N 31°59' W 080°37'0 0.1
2018-May-17 15:25N 31°59' W 080°37'0 0.1
2018-May-17 14:43N 31°59' W 080°37'0 0.0
2018-May-17 14:13N 31°59' W 080°37'0 0.0
2018-May-17 13:55N 31°59' W 080°37'0 0.1
2018-May-17 13:13N 31°59' W 080°37'0 0.0
2018-May-17 12:55N 31°59' W 080°37'0 0.0
2018-May-17 12:19N 31°59' W 080°37'0 0.0
2018-May-17 11:37N 31°59' W 080°37'0 0.0
2018-May-17 11:26N 31°59' W 080°37'0 0.0
2018-May-17 10:55N 31°59' W 080°37'0 0.0
2018-May-17 10:25N 31°59' W 080°37'0 0.0
2018-May-17 09:49N 31°59' W 080°37'0 0.0
2018-May-17 09:26N 31°59' W 080°37'1 1.3
2018-May-17 09:00N 31°59' W 080°37'4 9.0
2018-May-17 08:30N 31°57' W 080°32'612.9
2018-May-17 08:00N 31°59' W 080°24'714.4
2018-May-17 07:30N 32°01' W 080°16'  
Track history (hours):
 
Tides and Currents Weather Stations Pressure Air Temp Water Temp Dewpoint Dewpoint Depression Visibility Wind Speed Wind Dir Waves Ship Positions

Ever Delight

Last reported at 2018-May-24 06:00 UTC. Time now 2018-May-24 06:27 UTC.
Position N 40°41' W 074°08'.

Type: Cargo ship. MMSI: 351936000.

Date/timePositionNaut miles runAvg speedWind from/ knotsBaromVisibWave heightAir tempDewpointWater temp
2018-May-24 06:00N 40°41' W 074°08'0 0.0
2018-May-24 05:30N 40°41' W 074°08'0 0.0
2018-May-24 05:00N 40°41' W 074°08'0 0.0
2018-May-24 04:30N 40°41' W 074°08'0 0.0
2018-May-24 04:00N 40°41' W 074°08'0 0.0
2018-May-24 03:30N 40°41' W 074°08'0 0.0
2018-May-24 03:00N 40°41' W 074°08'0 0.0
2018-May-24 02:30N 40°41' W 074°08'0 0.0
2018-May-24 02:00N 40°41' W 074°08'0 0.0
2018-May-24 01:30N 40°41' W 074°08'0 0.0
2018-May-24 01:00N 40°41' W 074°08'0 0.0
2018-May-24 00:30N 40°41' W 074°08'0 0.0
2018-May-23 23:57N 40°41' W 074°08'0 0.0
2018-May-23 23:30N 40°41' W 074°08'0 0.0
2018-May-23 23:00N 40°41' W 074°08'0 0.0
2018-May-23 22:28N 40°41' W 074°08'0 0.0
2018-May-23 21:55N 40°41' W 074°08'0 0.0
2018-May-23 21:28N 40°41' W 074°08'0 0.0
2018-May-23 20:58N 40°41' W 074°08'0 0.0
2018-May-23 20:25N 40°41' W 074°08'0 0.0
2018-May-23 19:58N 40°41' W 074°08'0 0.0
2018-May-23 19:28N 40°41' W 074°08'0 0.0
2018-May-23 18:58N 40°41' W 074°08'0 0.0
2018-May-23 18:28N 40°41' W 074°08'0 0.0
2018-May-23 17:58N 40°41' W 074°08'0 0.0
2018-May-23 17:28N 40°41' W 074°08'0 0.0
2018-May-23 16:58N 40°41' W 074°08'0 0.0
2018-May-23 16:28N 40°41' W 074°08'0 0.0
2018-May-23 15:58N 40°41' W 074°08'0 0.0
2018-May-23 15:28N 40°41' W 074°08'0 0.0
2018-May-23 14:58N 40°41' W 074°08'0 0.0
2018-May-23 14:28N 40°41' W 074°08'0 0.0
2018-May-23 13:58N 40°41' W 074°08'0 0.0
2018-May-23 13:28N 40°41' W 074°08'0 0.0
2018-May-23 12:58N 40°41' W 074°08'0 0.0
2018-May-23 12:25N 40°41' W 074°08'0 0.0
2018-May-23 11:58N 40°41' W 074°08'0 0.0
2018-May-23 11:28N 40°41' W 074°08'0 0.0
2018-May-23 10:55N 40°41' W 074°08'0 0.0
2018-May-23 10:28N 40°41' W 074°08'0 0.0
2018-May-23 09:58N 40°41' W 074°08'0 0.0
2018-May-23 09:30N 40°41' W 074°08'0 0.0
2018-May-23 09:00N 40°41' W 074°08'1 1.2
2018-May-23 08:30N 40°40' W 074°08'2 3.2
2018-May-23 08:00N 40°39' W 074°07'3 6.0
2018-May-23 07:30N 40°38' W 074°03'510.6
2018-May-23 07:00N 40°33' W 074°02'714.3
2018-May-23 06:30N 40°29' W 073°54'9813.3
2018-May-22 23:07N 38°51' W 073°45'1014.8
2018-May-22 22:24N 38°41' W 073°48'714.8
2018-May-22 21:55N 38°34' W 073°50'41 9.0
2018-May-22 17:17N 37°54' W 074°04'0 0.5
2018-May-22 17:00N 37°54' W 074°04'0 0.4
2018-May-22 16:30N 37°54' W 074°03'0 0.5
2018-May-22 15:59N 37°54' W 074°03'0 0.3
2018-May-22 15:29N 37°54' W 074°03'0 0.1
2018-May-22 14:59N 37°54' W 074°03'1 2.2
2018-May-22 14:30N 37°54' W 074°04'713.4
2018-May-22 14:00N 37°47' W 074°06'714.9
2018-May-22 13:31N 37°40' W 074°08'714.6
2018-May-22 13:01N 37°33' W 074°11'714.6
2018-May-22 12:31N 37°26' W 074°13'714.8
2018-May-22 12:00N 37°19' W 074°16'714.7
2018-May-22 11:30N 37°12' W 074°18'714.8
2018-May-22 11:00N 37°04' W 074°20'715.0
2018-May-22 10:30N 36°57' W 074°23'815.1
2018-May-22 10:00N 36°50' W 074°25'815.1
2018-May-22 09:30N 36°43' W 074°27'67216.0
2018-May-20 15:23N 26°26' W 079°41'918.4
2018-May-20 14:52N 26°17' W 079°45'718.5
2018-May-20 14:30N 26°11' W 079°48'918.8
2018-May-20 14:00N 26°02' W 079°52'918.3
2018-May-20 13:31N 25°54' W 079°56'816.8
2018-May-20 13:00N 25°48' W 080°02'510.3
2018-May-20 12:30N 25°46' W 080°08'1 0.5
2018-May-20 10:00N 25°46' W 080°09'0 0.0
2018-May-20 09:30N 25°46' W 080°09'0 0.0
2018-May-20 09:00N 25°46' W 080°09'0 0.0
2018-May-20 08:29N 25°46' W 080°09'0 0.0
2018-May-20 08:01N 25°46' W 080°09'0 0.0
2018-May-20 07:30N 25°46' W 080°09'0 0.0
2018-May-20 07:00N 25°46' W 080°09'0 0.0
2018-May-20 06:30N 25°46' W 080°09'0 0.0
2018-May-20 06:00N 25°46' W 080°09'0 0.0
2018-May-20 05:30N 25°46' W 080°09'0 0.0
2018-May-20 05:00N 25°46' W 080°09'0 0.0
2018-May-20 04:30N 25°46' W 080°09'0 0.0
2018-May-20 04:00N 25°46' W 080°09'0 0.0
2018-May-20 03:30N 25°46' W 080°09'0 0.0
2018-May-20 03:00N 25°46' W 080°09'0 0.0
2018-May-20 02:30N 25°46' W 080°09'0 0.0
2018-May-20 02:00N 25°46' W 080°09'0 0.0
2018-May-20 01:30N 25°46' W 080°09'0 0.0
2018-May-20 01:00N 25°46' W 080°09'0 0.0
2018-May-20 00:30N 25°46' W 080°09'0 0.0
2018-May-20 00:01N 25°46' W 080°09'0 0.0
2018-May-19 23:30N 25°46' W 080°09'0 0.0
2018-May-19 23:00N 25°46' W 080°09'0 0.0
2018-May-19 22:30N 25°46' W 080°09'0 0.0
2018-May-19 22:00N 25°46' W 080°09'0 0.0
2018-May-19 21:30N 25°46' W 080°09'0 0.0
2018-May-19 21:00N 25°46' W 080°09'0 0.0
2018-May-19 20:30N 25°46' W 080°09'0 0.0
2018-May-19 20:00N 25°46' W 080°09'0 0.1
2018-May-19 19:30N 25°46' W 080°09'0 0.0
2018-May-19 19:00N 25°46' W 080°09'0 0.0
2018-May-19 18:30N 25°46' W 080°09'0 0.0
2018-May-19 18:00N 25°46' W 080°09'2 4.3
2018-May-19 17:30N 25°45' W 080°07'5 9.7
2018-May-19 17:01N 25°46' W 080°01'3 5.7
2018-May-19 16:31N 25°48' W 079°59'815.4
2018-May-19 16:00N 25°55' W 079°56'816.0
2018-May-19 15:30N 26°02' W 079°53'816.1
2018-May-19 15:00N 26°10' W 079°51'816.4
2018-May-19 14:30N 26°18' W 079°48'816.9
2018-May-19 14:00N 26°26' W 079°46'917.0
2018-May-19 13:30N 26°34' W 079°43'31817.5
2018-May-18 19:22N 31°50' W 080°22'719.2
2018-May-18 19:00N 31°53' W 080°30'917.2
2018-May-18 18:30N 31°56' W 080°39'612.1
2018-May-18 18:00N 31°59' W 080°46'714.3
2018-May-18 17:31N 32°02' W 080°53'611.7
2018-May-18 17:00N 32°05' W 080°59'5 9.0
2018-May-18 16:29N 32°05' W 081°05'3 5.6
2018-May-18 16:00N 32°06' W 081°07'2 4.1
2018-May-18 15:30N 32°08' W 081°09'0 0.1
2018-May-18 14:57N 32°08' W 081°09'0 0.0
2018-May-18 14:27N 32°08' W 081°09'0 0.0
2018-May-18 13:57N 32°08' W 081°09'0 0.0
2018-May-18 13:27N 32°08' W 081°09'0 0.0
2018-May-18 12:45N 32°08' W 081°09'0 0.0
2018-May-18 12:27N 32°08' W 081°09'0 0.0
2018-May-18 11:57N 32°08' W 081°09'0 0.0
2018-May-18 11:27N 32°08' W 081°09'0 0.0
2018-May-18 11:00N 32°08' W 081°09'0 0.0
2018-May-18 10:30N 32°08' W 081°09'0 0.0
2018-May-18 10:00N 32°08' W 081°09'0 0.0
2018-May-18 09:30N 32°08' W 081°09'0 0.0
2018-May-18 09:00N 32°08' W 081°09'0 0.0
2018-May-18 08:30N 32°08' W 081°09'0 0.0
2018-May-18 08:00N 32°08' W 081°09'0 0.0
2018-May-18 07:30N 32°08' W 081°09'0 0.0
2018-May-18 07:00N 32°08' W 081°09'0 0.0
2018-May-18 06:30N 32°08' W 081°09'0 0.0
2018-May-18 06:00N 32°08' W 081°09'0 0.0
2018-May-18 05:27N 32°08' W 081°09'0 0.0
2018-May-18 05:00N 32°08' W 081°09'0 0.0
2018-May-18 04:30N 32°08' W 081°09'0 0.0
2018-May-18 04:00N 32°08' W 081°09'0 0.0
2018-May-18 03:30N 32°08' W 081°09'0 0.0
2018-May-18 03:00N 32°08' W 081°09'0 0.0
2018-May-18 02:30N 32°08' W 081°09'0 0.0
2018-May-18 02:00N 32°08' W 081°09'0 0.0
2018-May-18 01:30N 32°08' W 081°09'0 0.0
2018-May-18 01:00N 32°08' W 081°09'0 0.0
2018-May-18 00:30N 32°08' W 081°09'0 0.0
2018-May-18 00:00N 32°08' W 081°09'0 0.0
2018-May-17 23:30N 32°08' W 081°09'0 0.0
2018-May-17 23:00N 32°08' W 081°09'0 0.0
2018-May-17 22:30N 32°08' W 081°09'0 0.0
2018-May-17 22:00N 32°08' W 081°09'0 0.0
2018-May-17 21:30N 32°08' W 081°09'1 1.8
2018-May-17 21:00N 32°07' W 081°08'2 4.9
2018-May-17 20:30N 32°05' W 081°06'3 5.6
2018-May-17 20:00N 32°05' W 081°03'4 7.3
2018-May-17 19:30N 32°05' W 080°59'4 8.3
2018-May-17 19:00N 32°02' W 080°54'510.0
2018-May-17 18:30N 32°02' W 080°49'713.2
2018-May-17 18:00N 31°58' W 080°42'4 7.7
2018-May-17 17:25N 31°59' W 080°37'0 0.1
2018-May-17 16:55N 31°59' W 080°37'0 0.0
2018-May-17 16:25N 31°59' W 080°37'0 0.0
2018-May-17 15:55N 31°59' W 080°37'0 0.1
2018-May-17 15:25N 31°59' W 080°37'0 0.1
2018-May-17 14:43N 31°59' W 080°37'0 0.0
2018-May-17 14:13N 31°59' W 080°37'0 0.0
2018-May-17 13:55N 31°59' W 080°37'0 0.1
2018-May-17 13:13N 31°59' W 080°37'0 0.0
2018-May-17 12:55N 31°59' W 080°37'0 0.0
2018-May-17 12:19N 31°59' W 080°37'0 0.0
2018-May-17 11:37N 31°59' W 080°37'0 0.0
2018-May-17 11:26N 31°59' W 080°37'0 0.0
2018-May-17 10:55N 31°59' W 080°37'0 0.0
2018-May-17 10:25N 31°59' W 080°37'0 0.0
2018-May-17 09:49N 31°59' W 080°37'0 0.0
2018-May-17 09:26N 31°59' W 080°37'1 1.3
2018-May-17 09:00N 31°59' W 080°37'4 9.0
2018-May-17 08:30N 31°57' W 080°32'612.9
2018-May-17 08:00N 31°59' W 080°24'714.4
2018-May-17 07:30N 32°01' W 080°16'  

Dump ship's entire track history